Time;durP1;ratioP1;P1;durP2;ratioP2;P2;SDS_P1;SDS_P2;PMS_P1;PMS_P2;Temp;Humidity;BMP_temperature;BMP_pressure;BME280_temperature;BME280_humidity;BME280_pressure;Samples;Min_cycle;Max_cycle;Signal;HPM_P1;HPM_P2
2022/08/05 00:00:47;;;;;;;2.75;1.23;;;18.50;99.90;;;;;;5083368;28;20058;-74
2022/08/05 00:03:14;;;;;;;4.00;1.00;;;18.60;99.90;;;;;;5083097;28;20028;-73
2022/08/05 00:05:42;;;;;;;5.20;1.92;;;18.60;99.90;;;;;;5083096;28;20028;-74
2022/08/05 00:08:08;;;;;;;3.53;1.48;;;18.60;99.90;;;;;;5082588;28;20028;-72
2022/08/05 00:10:33;;;;;;;2.17;1.35;;;18.60;99.90;;;;;;5081825;28;20032;-74
2022/08/05 00:12:59;;;;;;;8.27;1.58;;;18.60;99.90;;;;;;5082933;28;20024;-74
2022/08/05 00:15:24;;;;;;;5.10;1.48;;;18.70;99.90;;;;;;5081802;28;20042;-74
2022/08/05 00:17:50;;;;;;;3.58;1.52;;;18.70;99.90;;;;;;5080299;28;20118;-74
2022/08/05 00:20:16;;;;;;;2.58;1.08;;;18.70;99.90;;;;;;5082096;28;20024;-74
2022/08/05 00:22:41;;;;;;;2.55;1.10;;;18.70;99.90;;;;;;5082383;28;20036;-75
2022/08/05 00:25:07;;;;;;;3.30;1.83;;;18.70;99.90;;;;;;5082734;28;20031;-74
2022/08/05 00:27:32;;;;;;;2.55;1.25;;;18.70;99.90;;;;;;5082293;28;20395;-74
2022/08/05 00:29:58;;;;;;;3.00;1.38;;;18.70;99.90;;;;;;5080690;28;20489;-75
2022/08/05 00:32:24;;;;;;;2.42;1.45;;;18.80;99.90;;;;;;5082822;28;20027;-73
2022/08/05 00:34:49;;;;;;;1.45;1.02;;;18.80;99.90;;;;;;5082183;28;20101;-75
2022/08/05 00:37:15;;;;;;;6.13;1.15;;;18.70;99.90;;;;;;5081910;28;20020;-75
2022/08/05 00:39:44;;;;;;;5.95;1.48;;;18.70;99.90;;;;;;5082546;28;20040;-72
2022/08/05 00:42:09;;;;;;;1.90;1.10;;;18.70;99.90;;;;;;5082938;28;20032;-73
2022/08/05 00:44:35;;;;;;;1.30;1.05;;;18.60;99.90;;;;;;5081169;28;20016;-71
2022/08/05 00:47:00;;;;;;;1.63;1.05;;;18.70;99.90;;;;;;5079988;28;20032;-73
2022/08/05 00:49:26;;;;;;;1.77;1.10;;;18.60;99.90;;;;;;5081735;28;20045;-75
2022/08/05 00:51:51;;;;;;;2.20;1.15;;;18.50;99.90;;;;;;5082465;28;20123;-75
2022/08/05 00:54:17;;;;;;;4.10;1.15;;;18.50;99.90;;;;;;5081941;28;20017;-74
2022/08/05 00:56:43;;;;;;;2.72;1.27;;;18.40;99.90;;;;;;5082204;28;20024;-74
2022/08/05 00:59:08;;;;;;;2.47;1.55;;;18.60;99.90;;;;;;5081473;28;20033;-73
2022/08/05 01:01:43;;;;;;;8.10;0.90;;;18.50;99.90;;;;;;5080375;28;20048;-74
2022/08/05 01:04:09;;;;;;;5.93;1.63;;;18.50;99.90;;;;;;5082200;28;20030;-72
2022/08/05 01:06:34;;;;;;;3.25;1.23;;;18.50;99.90;;;;;;5080534;28;20017;-73
2022/08/05 01:09:00;;;;;;;2.85;1.80;;;18.50;99.90;;;;;;5081343;28;20085;-74
2022/08/05 01:11:38;;;;;;;1.98;1.15;;;18.50;99.90;;;;;;5081966;28;20036;-74
2022/08/05 01:14:12;;;;;;;2.47;1.25;;;18.40;99.90;;;;;;5080126;28;20084;-75
2022/08/05 01:16:53;;;;;;;4.20;1.40;;;18.40;99.90;;;;;;5080631;28;20017;-74
2022/08/05 01:19:21;;;;;;;6.93;1.73;;;18.40;99.90;;;;;;5081355;28;20051;-75
2022/08/05 01:22:02;;;;;;;1.55;1.08;;;18.40;99.90;;;;;;5080116;28;20064;-74
2022/08/05 01:24:54;;;;;;;4.00;1.63;;;18.40;99.90;;;;;;5080670;28;20029;-75
2022/08/05 01:27:54;;;;;;;7.80;2.00;;;18.40;99.90;;;;;;5081932;28;20514;-73
2022/08/05 01:30:21;;;;;;;4.32;1.95;;;18.50;99.90;;;;;;5080899;28;20043;-72
2022/08/05 01:32:50;;;;;;;6.10;1.30;;;18.40;99.90;;;;;;5081557;28;20126;-73
2022/08/05 01:35:21;;;;;;;1.75;1.35;;;18.40;99.90;;;;;;5081286;28;20029;-72
2022/08/05 01:37:51;;;;;;;5.32;1.92;;;18.40;99.90;;;;;;5080094;28;20500;-71
2022/08/05 01:40:30;;;;;;;1.83;1.42;;;18.40;99.90;;;;;;5080617;28;20043;-73
2022/08/05 01:42:59;;;;;;;3.42;1.63;;;18.30;99.90;;;;;;5079525;28;20107;-72
2022/08/05 01:45:28;;;;;;;1.45;1.00;;;18.30;99.90;;;;;;5080784;28;20027;-71
2022/08/05 01:47:55;;;;;;;2.03;1.33;;;18.20;99.90;;;;;;5080453;28;20040;-70
2022/08/05 01:50:35;;;;;;;17.42;2.15;;;18.10;99.90;;;;;;5080575;28;20413;-72
2022/08/05 01:53:05;;;;;;;4.50;1.65;;;18.10;99.90;;;;;;5081226;28;20044;-71
2022/08/05 01:55:33;;;;;;;1.50;1.40;;;18.00;99.90;;;;;;5080689;28;20546;-71
2022/08/05 01:58:02;;;;;;;2.55;1.75;;;18.00;99.90;;;;;;5080970;28;20029;-72
2022/08/05 02:00:30;;;;;;;2.22;1.33;;;18.10;99.90;;;;;;5081505;28;20035;-71
2022/08/05 02:03:05;;;;;;;2.05;1.48;;;17.90;99.90;;;;;;5080928;28;20551;-71
2022/08/05 02:05:35;;;;;;;4.85;1.70;;;17.90;99.90;;;;;;5078327;28;20025;-70
2022/08/05 02:08:01;;;;;;;10.63;1.67;;;18.00;99.90;;;;;;5080719;28;20024;-69
2022/08/05 02:10:31;;;;;;;2.20;1.65;;;17.90;99.90;;;;;;5081361;28;20040;-69
2022/08/05 02:13:12;;;;;;;11.40;2.08;;;17.80;99.90;;;;;;5080455;28;20029;-69
2022/08/05 02:15:46;;;;;;;3.53;1.88;;;17.70;99.90;;;;;;5081459;28;20032;-69
2022/08/05 02:18:23;;;;;;;2.47;1.73;;;17.70;99.90;;;;;;5081052;28;20036;-69
2022/08/05 02:20:53;;;;;;;1.90;1.42;;;17.60;99.90;;;;;;5080490;28;20036;-70
2022/08/05 02:23:23;;;;;;;2.70;1.75;;;17.50;99.90;;;;;;5079615;28;20028;-70
2022/08/05 02:25:51;;;;;;;3.45;1.95;;;17.50;99.90;;;;;;5080710;28;20039;-71
2022/08/05 02:28:25;;;;;;;6.60;2.03;;;17.50;99.90;;;;;;5080894;28;20025;-72
2022/08/05 02:31:06;;;;;;;4.90;2.75;;;17.50;99.90;;;;;;5080328;28;20097;-72
2022/08/05 02:33:36;;;;;;;9.07;2.55;;;17.50;99.90;;;;;;5079442;28;20061;-71
2022/08/05 02:36:07;;;;;;;4.30;2.17;;;17.50;99.90;;;;;;5079741;28;20033;-71
2022/08/05 02:38:34;;;;;;;2.13;1.63;;;17.50;99.90;;;;;;5080547;28;20590;-72
2022/08/05 02:41:02;;;;;;;5.05;1.98;;;17.30;99.90;;;;;;5078962;28;20032;-71
2022/08/05 02:43:28;;;;;;;4.70;2.00;;;17.40;99.90;;;;;;5080875;28;20078;-70
2022/08/05 02:45:55;;;;;;;5.50;2.22;;;17.40;99.90;;;;;;5078764;28;20025;-71
2022/08/05 02:48:23;;;;;;;4.32;2.33;;;17.50;99.90;;;;;;5080054;28;20016;-72
2022/08/05 02:50:50;;;;;;;4.28;2.42;;;17.40;99.90;;;;;;5080720;28;20641;-72
2022/08/05 02:53:19;;;;;;;2.75;2.00;;;17.40;99.90;;;;;;5082390;28;20078;-73
2022/08/05 02:55:51;;;;;;;3.17;2.20;;;17.40;99.90;;;;;;5082806;28;20024;-73
2022/08/05 02:58:20;;;;;;;3.67;2.45;;;17.50;99.90;;;;;;5084459;28;20032;-73
2022/08/05 03:00:46;;;;;;;3.03;1.70;;;17.40;99.90;;;;;;5084831;28;20031;-72
2022/08/05 03:03:17;;;;;;;4.05;2.28;;;17.40;99.90;;;;;;5083993;28;20074;-71
2022/08/05 03:05:44;;;;;;;10.02;2.58;;;17.40;99.90;;;;;;5084374;28;20058;-71
2022/08/05 03:08:10;;;;;;;3.95;2.35;;;17.50;99.90;;;;;;5082590;28;20035;-72
2022/08/05 03:10:36;;;;;;;4.90;2.33;;;17.40;99.90;;;;;;5083823;28;20044;-71
2022/08/05 03:13:09;;;;;;;8.82;1.83;;;17.40;99.90;;;;;;5084444;28;20025;-73
2022/08/05 03:15:35;;;;;;;6.85;3.00;;;17.40;99.90;;;;;;5083985;28;20036;-71
2022/08/05 03:18:00;;;;;;;4.35;2.22;;;17.40;99.90;;;;;;5083234;28;20039;-72
2022/08/05 03:20:26;;;;;;;13.13;2.33;;;17.40;99.90;;;;;;5082407;28;20102;-70
2022/08/05 03:22:53;;;;;;;7.57;2.70;;;17.50;99.90;;;;;;5081554;28;20032;-70
2022/08/05 03:25:21;;;;;;;6.93;2.33;;;17.40;99.90;;;;;;5083504;28;20024;-68
2022/08/05 03:27:47;;;;;;;3.67;1.80;;;17.40;99.90;;;;;;5083348;28;20020;-72
2022/08/05 03:30:13;;;;;;;3.63;1.85;;;17.40;99.90;;;;;;5082351;28;20071;-70
2022/08/05 03:32:39;;;;;;;4.60;2.67;;;17.40;99.90;;;;;;5084367;28;20040;-68
2022/08/05 03:35:06;;;;;;;9.77;2.40;;;17.40;99.90;;;;;;5082283;28;20025;-71
2022/08/05 03:37:32;;;;;;;6.20;2.42;;;17.40;99.90;;;;;;5083615;28;20780;-69
2022/08/05 03:39:58;;;;;;;7.28;3.13;;;17.40;99.90;;;;;;5082410;28;20028;-73
2022/08/05 03:42:24;;;;;;;4.50;2.70;;;17.40;99.90;;;;;;5084083;28;20023;-73
2022/08/05 03:44:50;;;;;;;10.23;3.00;;;17.40;99.90;;;;;;5083371;28;20060;-72
2022/08/05 03:47:16;;;;;;;12.18;3.22;;;17.40;99.90;;;;;;5083654;28;20134;-74
2022/08/05 03:49:41;;;;;;;4.60;2.72;;;17.40;99.90;;;;;;5083413;28;20424;-74
2022/08/05 03:52:26;;;;;;;5.97;2.25;;;17.30;99.90;;;;;;5082952;28;20040;-71
2022/08/05 03:54:57;;;;;;;3.35;2.05;;;17.40;99.90;;;;;;5083781;28;20017;-71
2022/08/05 03:57:28;;;;;;;6.13;2.65;;;17.50;99.90;;;;;;5083179;28;20024;-73
2022/08/05 04:00:01;;;;;;;6.00;3.20;;;17.40;99.90;;;;;;5083178;28;20052;-71
2022/08/05 04:02:29;;;;;;;8.63;3.17;;;17.40;99.90;;;;;;5083216;28;20036;-75
2022/08/05 04:04:57;;;;;;;3.13;2.13;;;17.40;99.90;;;;;;5081073;28;20063;-72
2022/08/05 04:07:24;;;;;;;3.95;2.28;;;17.30;99.90;;;;;;5083157;28;20017;-72
2022/08/05 04:09:50;;;;;;;5.28;2.90;;;17.40;99.90;;;;;;5081218;28;20111;-74
2022/08/05 04:12:15;;;;;;;11.30;3.38;;;17.40;99.90;;;;;;5080979;28;20055;-72
2022/08/05 04:14:42;;;;;;;4.47;2.50;;;17.30;99.90;;;;;;5083528;28;20035;-73
2022/08/05 04:17:08;;;;;;;3.42;2.35;;;17.50;99.90;;;;;;5082126;28;20131;-72
2022/08/05 04:19:42;;;;;;;8.00;2.65;;;17.50;99.90;;;;;;5081370;28;20052;-73
2022/08/05 04:22:08;;;;;;;5.65;2.25;;;17.50;99.90;;;;;;5082847;28;20016;-74
2022/08/05 04:24:33;;;;;;;13.38;3.20;;;17.50;99.90;;;;;;5082394;28;20100;-71
2022/08/05 04:26:59;;;;;;;8.00;2.50;;;17.50;99.90;;;;;;5082293;28;20035;-72
2022/08/05 04:29:25;;;;;;;6.88;2.67;;;17.70;99.90;;;;;;5082900;28;20035;-73
2022/08/05 04:31:51;;;;;;;8.05;2.90;;;17.50;99.90;;;;;;5082696;28;20017;-71
2022/08/05 04:34:16;;;;;;;6.25;3.17;;;17.60;99.90;;;;;;5082247;28;20043;-70
2022/08/05 04:36:42;;;;;;;4.50;2.55;;;17.60;99.90;;;;;;5082324;28;20048;-69
2022/08/05 04:39:14;;;;;;;2.72;1.60;;;17.70;99.90;;;;;;5080875;28;20017;-69
2022/08/05 04:41:39;;;;;;;3.78;2.08;;;17.60;99.90;;;;;;5082387;28;20350;-72
2022/08/05 04:44:05;;;;;;;5.88;2.78;;;17.60;99.90;;;;;;5082589;28;20054;-71
2022/08/05 04:46:31;;;;;;;3.70;2.40;;;17.60;99.90;;;;;;5082245;28;20025;-72
2022/08/05 04:48:56;;;;;;;4.82;2.55;;;17.70;99.90;;;;;;5081513;28;20044;-71
2022/08/05 04:51:22;;;;;;;10.82;2.28;;;17.70;99.90;;;;;;5082314;28;20047;-72
2022/08/05 04:53:47;;;;;;;7.35;2.17;;;17.70;99.90;;;;;;5082042;28;20036;-72
2022/08/05 04:56:13;;;;;;;12.60;3.40;;;17.80;99.90;;;;;;5082765;28;20044;-72
2022/08/05 04:58:42;;;;;;;5.18;2.45;;;17.70;99.90;;;;;;5079174;28;20036;-72
2022/08/05 05:01:07;;;;;;;5.43;3.10;;;17.80;99.90;;;;;;5076169;28;20039;-71
2022/08/05 05:03:33;;;;;;;7.47;2.33;;;17.80;99.90;;;;;;5081258;28;20033;-72
2022/08/05 05:05:59;;;;;;;5.35;3.10;;;17.90;99.90;;;;;;5080153;28;20028;-71
2022/08/05 05:08:24;;;;;;;3.88;2.33;;;17.80;99.90;;;;;;5081741;28;20030;-72
2022/08/05 05:10:56;;;;;;;8.38;2.90;;;17.90;99.90;;;;;;5079639;28;20039;-73
2022/08/05 05:13:22;;;;;;;8.57;2.97;;;18.00;99.90;;;;;;5081120;28;20050;-73
2022/08/05 05:15:47;;;;;;;4.93;3.10;;;17.90;99.90;;;;;;5078911;28;20032;-72
2022/08/05 05:18:14;;;;;;;3.92;2.10;;;17.90;99.90;;;;;;5080730;28;20337;-72
2022/08/05 05:20:44;;;;;;;4.30;2.45;;;17.90;99.90;;;;;;5079727;28;20231;-71
2022/08/05 05:23:10;;;;;;;6.78;2.70;;;17.90;99.90;;;;;;5079973;28;20061;-72
2022/08/05 05:25:43;;;;;;;7.78;3.40;;;17.90;99.90;;;;;;5080647;28;20032;-71
2022/08/05 05:28:10;;;;;;;4.60;2.83;;;17.90;99.90;;;;;;5080283;28;20016;-74
2022/08/05 05:30:37;;;;;;;5.97;3.28;;;17.90;99.90;;;;;;5080115;28;20037;-72
2022/08/05 05:33:04;;;;;;;6.95;3.65;;;17.90;99.90;;;;;;5080464;28;20025;-72
2022/08/05 05:35:31;;;;;;;6.15;3.70;;;17.90;99.90;;;;;;5069663;28;20409;-70
2022/08/05 05:37:59;;;;;;;3.42;2.50;;;17.90;99.90;;;;;;5080000;28;20028;-71
2022/08/05 05:40:29;;;;;;;6.18;3.83;;;18.00;99.90;;;;;;5079318;28;20025;-71
2022/08/05 05:42:55;;;;;;;11.88;3.22;;;18.10;99.90;;;;;;5075931;28;20032;-72
2022/08/05 05:45:21;;;;;;;4.78;2.72;;;18.10;99.90;;;;;;5079429;28;20044;-73
2022/08/05 05:47:47;;;;;;;4.40;2.33;;;18.10;99.90;;;;;;5078814;28;20040;-71
2022/08/05 05:50:15;;;;;;;7.75;2.63;;;18.20;99.90;;;;;;5077340;28;20044;-71
2022/08/05 05:52:41;;;;;;;5.85;2.88;;;18.10;99.90;;;;;;5079559;28;20039;-72
2022/08/05 05:55:09;;;;;;;6.20;2.92;;;18.10;99.90;;;;;;5079849;28;20020;-72
2022/08/05 05:57:36;;;;;;;4.75;2.67;;;18.10;99.90;;;;;;5072660;28;20032;-72
2022/08/05 06:00:05;;;;;;;9.60;2.97;;;18.20;99.90;;;;;;5077788;28;20036;-73
2022/08/05 06:02:31;;;;;;;7.72;3.50;;;18.20;99.90;;;;;;5078806;28;20103;-72
2022/08/05 06:04:56;;;;;;;10.32;3.08;;;18.10;99.90;;;;;;5080550;28;20124;-71
2022/08/05 06:07:22;;;;;;;4.20;2.90;;;18.00;99.90;;;;;;5080230;28;20409;-71
2022/08/05 06:09:47;;;;;;;3.45;2.60;;;18.10;99.90;;;;;;5080366;28;20037;-73
2022/08/05 06:12:13;;;;;;;8.02;2.90;;;18.20;99.90;;;;;;5079948;28;20488;-72
2022/08/05 06:14:38;;;;;;;8.60;3.42;;;18.10;99.90;;;;;;5080118;28;20027;-72
2022/08/05 06:17:04;;;;;;;10.52;2.75;;;18.10;99.90;;;;;;5078315;28;20028;-72
2022/08/05 06:19:29;;;;;;;6.60;3.60;;;18.10;99.90;;;;;;5079682;28;20416;-72
2022/08/05 06:21:55;;;;;;;3.13;2.17;;;18.10;99.90;;;;;;5080397;28;20029;-72
2022/08/05 06:24:21;;;;;;;4.53;2.58;;;18.10;99.90;;;;;;5078743;28;20033;-72
2022/08/05 06:26:46;;;;;;;6.47;2.60;;;18.10;99.90;;;;;;5079853;28;20074;-72
2022/08/05 06:29:12;;;;;;;4.28;2.60;;;18.20;99.90;;;;;;5084430;28;20032;-72
2022/08/05 06:31:38;;;;;;;12.07;2.25;;;18.10;99.90;;;;;;5084613;28;20037;-72
2022/08/05 06:34:06;;;;;;;3.47;2.53;;;18.10;99.90;;;;;;5084048;28;20084;-73
2022/08/05 06:36:32;;;;;;;3.70;2.22;;;18.00;99.90;;;;;;5083688;28;20033;-72
2022/08/05 06:38:58;;;;;;;5.90;3.35;;;18.00;99.90;;;;;;5081318;28;20025;-72
2022/08/05 06:41:23;;;;;;;6.85;3.13;;;18.00;99.90;;;;;;5082056;28;20568;-72
2022/08/05 06:43:49;;;;;;;6.10;2.20;;;18.10;99.90;;;;;;5080338;28;20040;-71
2022/08/05 06:46:15;;;;;;;7.22;3.20;;;18.10;99.90;;;;;;5079857;28;20222;-72
2022/08/05 06:48:41;;;;;;;5.20;2.80;;;18.10;99.90;;;;;;5076770;28;20958;-72
2022/08/05 06:51:06;;;;;;;6.72;3.17;;;18.20;99.90;;;;;;5076062;28;20049;-72
2022/08/05 06:53:32;;;;;;;3.88;2.50;;;18.20;99.90;;;;;;5076135;28;20036;-72
2022/08/05 06:55:59;;;;;;;7.13;2.28;;;18.20;99.90;;;;;;5077332;28;20021;-75
2022/08/05 06:58:26;;;;;;;5.38;2.75;;;18.20;99.90;;;;;;5080885;28;20056;-74
2022/08/05 07:00:52;;;;;;;7.43;3.35;;;18.20;99.90;;;;;;5080967;28;20024;-72
2022/08/05 07:03:18;;;;;;;4.30;2.95;;;18.20;99.90;;;;;;5080237;28;20028;-73
2022/08/05 07:05:44;;;;;;;6.30;2.72;;;18.20;99.90;;;;;;5081636;28;20024;-71
2022/08/05 07:08:10;;;;;;;4.63;2.85;;;18.20;99.90;;;;;;5080125;28;20032;-73
2022/08/05 07:10:35;;;;;;;5.25;3.13;;;18.20;99.90;;;;;;5082828;28;20060;-73
2022/08/05 07:18:29;;;;;;;11.23;3.38;;;18.30;99.90;;;;;;5081803;28;20473;-72
2022/08/05 07:20:55;;;;;;;7.88;2.63;;;18.20;99.90;;;;;;5079816;28;20040;-72
2022/08/05 07:23:20;;;;;;;8.73;3.35;;;18.20;99.90;;;;;;5081164;28;20035;-73
2022/08/05 07:25:46;;;;;;;6.80;2.67;;;18.30;99.90;;;;;;5082641;28;20103;-71
2022/08/05 07:28:12;;;;;;;3.47;2.25;;;18.30;99.90;;;;;;5080193;28;20033;-72
2022/08/05 07:30:38;;;;;;;6.25;2.85;;;18.40;99.90;;;;;;5082422;28;20040;-73
2022/08/05 07:33:05;;;;;;;8.50;3.53;;;18.30;99.90;;;;;;5081509;28;20434;-71
2022/08/05 07:35:33;;;;;;;7.00;2.80;;;18.40;99.90;;;;;;5080439;28;20052;-72
2022/08/05 07:37:59;;;;;;;13.63;3.83;;;18.40;99.90;;;;;;5079460;28;20051;-72
2022/08/05 07:40:24;;;;;;;4.63;2.55;;;18.30;99.90;;;;;;5082253;28;20489;-71
2022/08/05 07:42:50;;;;;;;3.45;2.05;;;18.30;99.90;;;;;;5081537;28;20092;-71
2022/08/05 07:45:16;;;;;;;5.00;2.63;;;18.40;99.90;;;;;;5081328;28;20098;-72
2022/08/05 07:47:41;;;;;;;5.28;2.40;;;18.40;99.90;;;;;;5079357;28;20093;-72
2022/08/05 07:50:09;;;;;;;4.00;2.55;;;18.40;99.90;;;;;;5079650;28;20044;-72
2022/08/05 07:52:39;;;;;;;4.45;2.38;;;18.40;99.90;;;;;;5079870;28;20088;-70
2022/08/05 07:55:05;;;;;;;4.15;2.05;;;18.40;99.90;;;;;;5078654;28;20127;-70
2022/08/05 07:57:31;;;;;;;4.90;2.33;;;18.40;99.90;;;;;;5080974;28;20032;-70
2022/08/05 07:59:57;;;;;;;2.47;1.50;;;18.40;99.90;;;;;;5081088;28;20028;-70
2022/08/05 08:02:24;;;;;;;4.20;2.30;;;18.40;99.90;;;;;;5078534;28;20029;-71
2022/08/05 08:04:50;;;;;;;7.53;2.55;;;18.30;99.90;;;;;;5082934;28;20043;-71
2022/08/05 08:07:17;;;;;;;3.13;1.83;;;18.40;99.90;;;;;;5081622;28;20024;-72
2022/08/05 08:09:42;;;;;;;8.48;2.35;;;18.30;99.90;;;;;;5082733;28;20028;-71
2022/08/05 08:12:09;;;;;;;4.60;2.45;;;18.20;99.90;;;;;;5082015;28;20429;-71
2022/08/05 08:14:34;;;;;;;4.35;2.22;;;18.20;99.90;;;;;;5081342;28;20052;-72
2022/08/05 08:17:00;;;;;;;3.33;2.28;;;18.30;99.90;;;;;;5082909;28;20029;-71
2022/08/05 08:19:26;;;;;;;2.90;2.15;;;18.20;99.90;;;;;;5081233;28;20027;-73
2022/08/05 08:21:51;;;;;;;5.07;2.55;;;18.20;99.90;;;;;;5082268;28;20088;-73
2022/08/05 08:24:17;;;;;;;6.45;2.80;;;18.20;99.90;;;;;;5082894;28;20020;-72
2022/08/05 08:26:43;;;;;;;2.88;1.65;;;18.20;99.90;;;;;;5081191;28;20039;-74
2022/08/05 08:29:08;;;;;;;4.78;2.72;;;18.10;99.90;;;;;;5080790;28;20032;-73
2022/08/05 08:31:34;;;;;;;8.77;3.67;;;18.10;99.90;;;;;;5080062;28;20042;-73
2022/08/05 08:34:00;;;;;;;8.40;2.85;;;18.20;99.90;;;;;;5080365;28;20047;-72
2022/08/05 08:36:25;;;;;;;10.85;3.13;;;18.20;99.90;;;;;;5081873;28;20033;-74
2022/08/05 08:38:54;;;;;;;4.50;2.63;;;18.20;99.90;;;;;;5078612;28;20088;-73
2022/08/05 08:41:21;;;;;;;15.55;4.03;;;18.20;99.90;;;;;;5081047;28;20024;-73
2022/08/05 08:43:49;;;;;;;6.43;2.58;;;18.20;99.90;;;;;;5081512;28;20040;-74
2022/08/05 08:46:16;;;;;;;4.20;2.88;;;18.30;99.90;;;;;;5082064;28;20012;-76
2022/08/05 08:48:45;;;;;;;8.30;3.03;;;18.30;99.90;;;;;;5081408;28;20029;-75
2022/08/05 08:51:11;;;;;;;2.63;1.92;;;18.40;99.90;;;;;;5078304;28;20032;-74
2022/08/05 08:53:37;;;;;;;5.22;2.45;;;18.40;99.90;;;;;;5078737;28;20021;-77
2022/08/05 08:56:04;;;;;;;6.43;3.10;;;18.40;99.90;;;;;;5080256;28;20120;-74
2022/08/05 08:58:32;;;;;;;4.20;2.63;;;18.40;99.90;;;;;;5081695;28;20020;-76
2022/08/05 09:00:58;;;;;;;4.47;2.47;;;18.40;99.90;;;;;;5079190;28;20036;-74
2022/08/05 09:03:24;;;;;;;5.65;2.75;;;18.40;99.90;;;;;;5078987;28;20028;-74
2022/08/05 09:05:49;;;;;;;4.35;2.38;;;18.50;99.90;;;;;;5081289;28;20393;-75
2022/08/05 09:08:16;;;;;;;7.15;2.80;;;18.40;99.90;;;;;;5078703;28;20033;-75
2022/08/05 09:10:43;;;;;;;2.90;1.98;;;18.40;99.90;;;;;;5077386;28;20576;-75
2022/08/05 09:13:12;;;;;;;4.18;2.05;;;18.40;99.90;;;;;;5074939;28;20024;-73
2022/08/05 09:15:38;;;;;;;2.08;1.73;;;18.30;99.90;;;;;;5077727;28;20067;-74
2022/08/05 09:18:08;;;;;;;5.57;2.17;;;18.30;99.90;;;;;;5076704;28;20033;-73
2022/08/05 09:20:34;;;;;;;2.25;1.50;;;18.20;99.90;;;;;;5078708;28;20123;-75
2022/08/05 09:23:12;;;;;;;2.88;2.05;;;18.20;99.90;;;;;;5080645;28;20020;-74
2022/08/05 09:25:39;;;;;;;4.55;2.42;;;18.20;99.90;;;;;;5080143;28;20115;-74
2022/08/05 09:28:13;;;;;;;17.98;2.47;;;18.30;99.90;;;;;;5076945;28;20016;-76
2022/08/05 09:30:42;;;;;;;2.65;1.95;;;18.30;99.90;;;;;;5078055;28;20119;-77
2022/08/05 09:33:08;;;;;;;3.65;2.00;;;18.30;99.90;;;;;;5078866;28;20037;-76
2022/08/05 09:35:34;;;;;;;11.75;3.22;;;18.30;99.90;;;;;;5078294;28;20063;-75
2022/08/05 09:37:59;;;;;;;4.05;1.80;;;18.40;99.90;;;;;;5076889;28;20101;-73
2022/08/05 09:40:39;;;;;;;4.20;2.05;;;18.30;99.90;;;;;;5079203;28;20064;-74
2022/08/05 09:43:06;;;;;;;7.68;1.67;;;18.40;99.90;;;;;;5079539;28;20021;-74
2022/08/05 09:45:41;;;;;;;3.65;1.58;;;18.40;99.90;;;;;;5079497;28;20032;-74
2022/08/05 09:48:28;;;;;;;3.78;1.58;;;18.40;99.90;;;;;;5079737;28;20066;-74
2022/08/05 09:50:59;;;;;;;4.57;1.80;;;18.40;99.90;;;;;;5079546;28;20048;-75
2022/08/05 09:53:25;;;;;;;1.77;1.50;;;18.40;99.90;;;;;;5079030;28;20050;-74
2022/08/05 09:55:58;;;;;;;6.50;1.98;;;18.40;99.90;;;;;;5080884;28;20023;-75
2022/08/05 09:58:25;;;;;;;4.05;1.52;;;18.30;99.90;;;;;;5077020;28;20193;-74
2022/08/05 10:00:51;;;;;;;2.15;1.50;;;18.40;99.90;;;;;;5079348;28;20052;-75
2022/08/05 10:03:17;;;;;;;2.70;1.40;;;18.40;99.90;;;;;;5077929;28;20500;-74
2022/08/05 10:05:43;;;;;;;4.55;1.25;;;18.40;99.90;;;;;;5080406;28;20032;-73
2022/08/05 10:08:09;;;;;;;3.85;1.58;;;18.40;99.90;;;;;;5080409;28;20036;-74
2022/08/05 10:10:47;;;;;;;8.63;1.83;;;18.40;99.90;;;;;;5080374;28;20059;-74
2022/08/05 10:13:34;;;;;;;3.78;1.92;;;18.30;99.90;;;;;;5080826;28;20036;-74
2022/08/05 10:16:01;;;;;;;3.35;1.92;;;18.30;99.90;;;;;;5080762;28;20040;-73
2022/08/05 10:18:30;;;;;;;2.70;1.50;;;18.30;99.90;;;;;;5078775;28;20085;-74
2022/08/05 10:21:03;;;;;;;1.42;1.15;;;18.40;99.90;;;;;;5078727;28;20028;-74
2022/08/05 10:23:33;;;;;;;1.98;1.55;;;18.50;99.90;;;;;;5080138;28;20021;-73
2022/08/05 10:26:01;;;;;;;5.38;1.77;;;18.40;99.90;;;;;;5079380;28;20064;-72
2022/08/05 10:28:29;;;;;;;3.83;2.20;;;18.40;99.90;;;;;;5079219;28;20341;-73
2022/08/05 10:30:55;;;;;;;2.25;1.42;;;18.40;99.90;;;;;;5078617;28;20487;-73
2022/08/05 10:33:22;;;;;;;4.68;1.90;;;18.40;99.90;;;;;;5080717;28;20500;-74
2022/08/05 10:35:52;;;;;;;3.10;2.10;;;18.40;99.90;;;;;;5073802;28;20077;-74
2022/08/05 10:38:20;;;;;;;2.13;1.50;;;18.40;99.90;;;;;;5070297;28;20111;-73
2022/08/05 10:40:49;;;;;;;3.55;1.40;;;18.50;99.90;;;;;;5077767;28;20035;-73
2022/08/05 10:43:36;;;;;;;7.80;1.67;;;18.50;99.90;;;;;;5079266;28;20031;-77
2022/08/05 10:46:04;;;;;;;5.57;1.45;;;18.60;99.90;;;;;;5080132;28;20422;-75
2022/08/05 10:48:35;;;;;;;9.45;1.83;;;18.80;99.90;;;;;;5079892;28;20090;-71
2022/08/05 10:51:16;;;;;;;1.73;1.52;;;18.70;99.90;;;;;;5079773;28;20048;-70
2022/08/05 10:53:53;;;;;;;2.58;2.08;;;18.80;99.90;;;;;;5080769;28;20028;-72
2022/08/05 10:56:36;;;;;;;3.97;1.65;;;18.80;99.90;;;;;;5079655;28;20362;-71
2022/08/05 10:59:08;;;;;;;1.58;1.33;;;18.90;99.90;;;;;;5079457;28;20082;-72
2022/08/05 11:01:36;;;;;;;4.32;1.45;;;18.80;99.90;;;;;;5078091;28;20029;-72
2022/08/05 11:04:16;;;;;;;8.15;1.48;;;18.80;99.90;;;;;;5079316;28;20040;-72
2022/08/05 11:06:57;;;;;;;7.10;2.15;;;18.80;99.90;;;;;;5079527;28;20066;-72
2022/08/05 11:09:28;;;;;;;3.72;2.00;;;18.80;99.90;;;;;;5079689;28;20089;-75
2022/08/05 11:11:54;;;;;;;3.35;1.60;;;18.90;99.90;;;;;;5079093;28;20040;-73
2022/08/05 11:14:30;;;;;;;2.70;1.98;;;18.90;99.90;;;;;;5080668;28;20020;-73
2022/08/05 11:17:44;;;;;;;7.68;1.83;;;19.00;99.90;;;;;;5081824;28;20130;-76
2022/08/05 11:20:33;;;;;;;3.80;1.40;;;19.00;99.90;;;;;;5082213;28;20524;-76
2022/08/05 11:23:19;;;;;;;1.92;1.30;;;19.10;99.90;;;;;;5081112;28;20031;-75
2022/08/05 11:26:20;;;;;;;2.25;1.40;;;19.30;99.90;;;;;;5083122;28;20024;-75
2022/08/05 11:28:48;;;;;;;2.05;1.48;;;19.40;99.90;;;;;;5082227;28;20419;-74
2022/08/05 11:31:13;;;;;;;3.95;1.30;;;19.50;99.90;;;;;;5081139;28;20051;-76
2022/08/05 11:33:45;;;;;;;1.92;1.35;;;19.60;99.90;;;;;;5079699;28;20028;-74
2022/08/05 11:36:13;;;;;;;2.60;1.73;;;19.80;99.90;;;;;;5080446;28;20056;-73
2022/08/05 11:38:41;;;;;;;1.42;1.23;;;19.80;99.90;;;;;;5082048;28;20067;-75
2022/08/05 11:41:19;;;;;;;2.47;1.70;;;19.80;99.90;;;;;;5081803;28;20028;-71
2022/08/05 11:43:59;;;;;;;5.65;1.58;;;19.90;99.90;;;;;;5079367;28;20039;-72
2022/08/05 11:46:32;;;;;;;3.30;1.80;;;20.00;99.90;;;;;;5078015;28;20028;-72
2022/08/05 11:48:59;;;;;;;4.15;1.92;;;20.10;99.90;;;;;;5079127;28;20048;-72
2022/08/05 11:51:27;;;;;;;5.07;1.60;;;20.30;99.90;;;;;;5079783;28;20504;-70
2022/08/05 11:53:54;;;;;;;2.33;1.52;;;20.50;99.90;;;;;;5078600;28;20068;-71
2022/08/05 11:56:20;;;;;;;2.28;1.80;;;20.70;99.90;;;;;;5078136;28;20091;-72
2022/08/05 11:58:48;;;;;;;4.07;1.88;;;20.80;99.90;;;;;;5076913;28;20082;-71
2022/08/05 12:01:16;;;;;;;2.05;1.60;;;20.80;99.90;;;;;;5080082;28;20162;-72
2022/08/05 12:03:46;;;;;;;2.15;0.90;;;20.70;99.90;;;;;;5078516;28;20386;-71
2022/08/05 12:06:16;;;;;;;2.72;1.15;;;20.70;99.90;;;;;;5074921;28;20488;-69
2022/08/05 12:09:08;;;;;;;11.18;1.30;;;20.60;99.90;;;;;;5074487;28;20039;-73
2022/08/05 12:11:33;;;;;;;8.43;1.45;;;20.50;99.90;;;;;;5080565;28;20044;-70
2022/08/05 12:14:01;;;;;;;1.02;0.90;;;20.40;99.90;;;;;;5080217;28;20029;-70
2022/08/05 12:16:38;;;;;;;2.83;1.02;;;20.40;99.90;;;;;;5079610;28;20016;-68
2022/08/05 12:19:12;;;;;;;1.13;0.95;;;20.40;99.90;;;;;;5080375;28;20020;-72
2022/08/05 12:21:48;;;;;;;3.47;1.27;;;20.30;99.90;;;;;;5079913;28;20031;-72
2022/08/05 12:24:21;;;;;;;2.78;1.20;;;20.30;99.90;;;;;;5076437;28;20040;-72
2022/08/05 12:26:49;;;;;;;1.63;1.02;;;20.20;99.90;;;;;;5068978;28;20028;-72
2022/08/05 12:29:17;;;;;;;2.80;1.10;;;20.20;99.90;;;;;;5077596;28;20035;-72
2022/08/05 12:32:04;;;;;;;1.10;0.80;;;20.20;99.90;;;;;;5077522;28;20033;-71
2022/08/05 12:34:35;;;;;;;1.67;1.00;;;20.20;99.90;;;;;;5079954;28;20112;-70
2022/08/05 12:37:09;;;;;;;1.48;1.00;;;20.10;99.90;;;;;;5080757;28;20055;-71
2022/08/05 12:39:38;;;;;;;2.90;1.40;;;20.10;99.90;;;;;;5079846;28;20036;-70
2022/08/05 12:42:10;;;;;;;1.88;1.15;;;20.10;99.90;;;;;;5080355;28;20805;-70
2022/08/05 12:44:36;;;;;;;6.68;1.27;;;20.00;99.90;;;;;;5079631;28;20036;-71
2022/08/05 12:47:02;;;;;;;1.60;1.00;;;20.10;99.90;;;;;;5080868;28;20025;-72
2022/08/05 12:49:43;;;;;;;4.32;1.50;;;20.00;99.90;;;;;;5080973;28;20040;-72
2022/08/05 12:52:17;;;;;;;4.07;1.38;;;20.00;99.90;;;;;;5075596;28;22056;-72
2022/08/05 12:54:45;;;;;;;3.13;1.00;;;20.00;99.90;;;;;;5078492;28;20036;-71
2022/08/05 12:57:12;;;;;;;4.40;1.23;;;20.10;99.90;;;;;;5076075;28;20028;-71
2022/08/05 12:59:45;;;;;;;1.80;1.15;;;20.00;99.90;;;;;;5077309;28;20491;-71